Amityville, New York
Current Conditions -  °F | °C
As of 3:53 PM on Saturday 22 Nov 2014 (Local Time) from KFRG Reporting Station
Overcast Overcast  
Wind Chill:   Ceiling: 8000
Heat Index:   Visibility: 10mi
Dew Point: -8°   Wind: 15mph
Humidity: 34%   Direction: 240°WSW
Pressure: 30.28"   Gusts: NA
Location:  40.68°N, 73.42°W
Report Text: KFRG 222053Z 24013KT 10SM OVC080 07/M08 A3028 RMK AO2 SLP254 T00671083 56024
Loading
Personal Weather Stations






























Interactive Weather Map New forecast layout! Learn more

10-Day Weather Forecast

Advertisements
Track Severe Weather on mobile